Time;durP1;ratioP1;P1;durP2;ratioP2;P2;SDS_P1;SDS_P2;PMS_P1;PMS_P2;Temp;Humidity;BMP_temperature;BMP_pressure;BME280_temperature;BME280_humidity;BME280_pressure;Samples;Min_cycle;Max_cycle;Signal;HPM_P1;HPM_P2
2023/09/14 00:01:01;;;;;;;7.97;3.72;;;;;;;14.48;88.14;102011.56;3592601;39;20056;-64
2023/09/14 00:03:27;;;;;;;8.57;4.13;;;;;;;14.49;88.22;102013.28;3595951;39;20051;-64
2023/09/14 00:05:53;;;;;;;7.95;3.78;;;;;;;14.47;88.33;102012.53;3594603;39;20295;-65
2023/09/14 00:08:21;;;;;;;7.90;4.30;;;;;;;14.46;88.16;102015.31;3593654;39;20074;-66
2023/09/14 00:10:54;;;;;;;7.35;3.85;;;;;;;14.42;88.21;102014.63;3593902;39;20052;-64
2023/09/14 00:13:20;;;;;;;6.47;4.00;;;;;;;14.35;88.45;102006.00;3595374;39;20372;-65
2023/09/14 00:15:45;;;;;;;6.28;3.70;;;;;;;14.36;88.56;102014.97;3597009;39;20116;-66
2023/09/14 00:18:11;;;;;;;10.63;3.97;;;;;;;14.34;88.55;102019.63;3595123;39;20067;-65
2023/09/14 00:20:37;;;;;;;9.52;4.18;;;;;;;14.31;88.83;102019.81;3594490;39;20055;-64
2023/09/14 00:23:03;;;;;;;7.32;4.40;;;;;;;14.28;88.79;102020.84;3592176;39;20063;-66
2023/09/14 00:25:29;;;;;;;9.43;3.70;;;;;;;14.25;88.91;102015.63;3593963;39;20059;-65
2023/09/14 00:27:54;;;;;;;8.75;4.35;;;;;;;14.24;89.36;102015.69;3596808;39;20396;-65
2023/09/14 00:30:23;;;;;;;6.05;4.53;;;;;;;14.22;89.14;102017.66;3597007;39;20105;-65
2023/09/14 00:32:51;;;;;;;7.78;4.30;;;;;;;14.21;89.64;102018.59;3594749;39;20056;-65
2023/09/14 00:35:20;;;;;;;6.43;4.00;;;;;;;14.23;89.66;102024.78;3596493;39;20047;-65
2023/09/14 00:37:48;;;;;;;7.28;4.40;;;;;;;14.25;89.69;102017.47;3594948;39;20058;-65
2023/09/14 00:40:15;;;;;;;6.50;4.10;;;;;;;14.21;88.87;102015.88;3595057;39;20063;-65
2023/09/14 00:42:44;;;;;;;8.23;5.00;;;;;;;14.20;89.31;102015.00;3593007;39;20063;-65
2023/09/14 00:45:13;;;;;;;9.70;4.82;;;;;;;14.16;89.41;102014.31;3593804;39;20079;-65
2023/09/14 00:47:43;;;;;;;7.20;4.53;;;;;;;14.16;89.98;102019.72;3594485;39;20072;-64
2023/09/14 00:50:15;;;;;;;9.45;4.85;;;;;;;14.14;89.17;102018.97;3593517;39;20055;-65
2023/09/14 00:52:42;;;;;;;7.80;4.57;;;;;;;14.09;89.52;102007.53;3594240;39;20067;-64
2023/09/14 00:55:10;;;;;;;5.60;4.47;;;;;;;14.13;89.30;102010.94;3593598;39;20125;-63
2023/09/14 00:57:38;;;;;;;7.40;4.78;;;;;;;14.10;89.50;102014.66;3594275;39;20044;-65
2023/09/14 01:00:05;;;;;;;5.93;4.57;;;;;;;14.08;89.70;102021.13;3594647;39;20062;-67
2023/09/14 01:02:33;;;;;;;9.05;4.35;;;;;;;14.01;89.85;102015.19;3594436;39;20104;-65
2023/09/14 01:05:01;;;;;;;7.60;4.90;;;;;;;14.01;89.75;102014.34;3591350;39;20060;-64
2023/09/14 01:07:27;;;;;;;8.75;5.00;;;;;;;13.96;90.11;102000.22;3593222;39;20222;-66
2023/09/14 01:09:53;;;;;;;10.57;4.75;;;;;;;13.99;89.76;102008.16;3594413;39;20055;-65
2023/09/14 01:12:19;;;;;;;8.27;4.85;;;;;;;13.98;90.33;102014.50;3592847;39;20310;-64
2023/09/14 01:15:02;;;;;;;7.40;4.88;;;;;;;13.98;90.03;102020.78;3594187;39;20056;-66
2023/09/14 01:17:50;;;;;;;8.95;4.60;;;;;;;13.96;89.57;102022.72;3593945;39;20058;-65
2023/09/14 01:20:57;;;;;;;8.02;4.70;;;;;;;13.95;89.63;102023.66;3596390;39;20047;-65
2023/09/14 01:23:58;;;;;;;7.47;5.10;;;;;;;13.91;88.70;102024.78;3591941;39;20279;-65
2023/09/14 01:26:27;;;;;;;8.55;4.68;;;;;;;13.90;89.14;102018.53;3596850;39;20051;-64
2023/09/14 01:28:53;;;;;;;7.38;4.65;;;;;;;13.89;88.98;102022.19;3595546;39;20091;-66
2023/09/14 01:31:19;;;;;;;8.20;4.68;;;;;;;13.88;89.50;102019.56;3593413;39;20054;-65
2023/09/14 01:33:48;;;;;;;8.98;4.85;;;;;;;13.86;89.57;102014.25;3592232;39;20056;-65
2023/09/14 01:36:46;;;;;;;9.38;4.50;;;;;;;13.71;89.80;101990.81;3593833;39;20058;-65
2023/09/14 01:39:13;;;;;;;13.38;5.65;;;;;;;13.85;90.35;102017.91;3592521;39;20365;-67
2023/09/14 01:41:41;;;;;;;9.20;5.10;;;;;;;13.85;90.28;102014.34;3592645;39;20067;-64
2023/09/14 01:44:07;;;;;;;8.38;5.00;;;;;;;13.73;90.35;101996.97;3593777;39;20047;-65
2023/09/14 01:46:33;;;;;;;9.25;5.10;;;;;;;13.82;90.41;102014.50;3591457;39;20564;-66
2023/09/14 01:48:59;;;;;;;10.32;5.70;;;;;;;13.83;90.60;102010.88;3593531;39;20369;-66
2023/09/14 01:51:25;;;;;;;7.95;5.70;;;;;;;13.81;90.68;102010.94;3592689;39;20055;-66
2023/09/14 01:53:50;;;;;;;7.55;4.90;;;;;;;13.79;91.00;102011.97;3594563;39;20043;-65
2023/09/14 01:56:16;;;;;;;8.30;5.43;;;;;;;13.78;91.02;102007.53;3594022;39;20092;-65
2023/09/14 01:58:41;;;;;;;9.35;5.25;;;;;;;13.76;91.39;102006.75;3595975;39;20102;-64
2023/09/14 02:01:07;;;;;;;10.48;5.07;;;;;;;13.73;90.72;102012.31;3591473;39;20067;-65
2023/09/14 02:03:34;;;;;;;8.90;4.75;;;;;;;13.68;90.20;102018.84;3591687;39;20379;-65
2023/09/14 02:06:03;;;;;;;6.63;4.78;;;;;;;13.66;89.60;102004.56;3593117;39;20087;-66
2023/09/14 02:08:30;;;;;;;6.53;4.53;;;;;;;13.65;89.47;102019.03;3592828;39;20121;-65
2023/09/14 02:10:56;;;;;;;6.57;4.90;;;;;;;13.64;90.38;102017.28;3592554;39;21808;-65
2023/09/14 02:13:22;;;;;;;6.15;4.78;;;;;;;13.59;89.99;102016.66;3593009;39;20375;-64
2023/09/14 02:15:50;;;;;;;7.72;5.70;;;;;;;13.60;90.29;102020.22;3593688;39;20063;-65
2023/09/14 02:18:16;;;;;;;7.85;5.00;;;;;;;13.57;89.66;102015.88;3591936;39;20055;-65
2023/09/14 02:20:42;;;;;;;8.50;6.32;;;;;;;13.58;90.22;102014.94;3584384;39;20066;-66
2023/09/14 02:23:09;;;;;;;9.77;6.03;;;;;;;13.55;90.60;102004.28;3591638;39;20068;-65
2023/09/14 02:25:35;;;;;;;9.23;5.82;;;;;;;13.54;91.23;102012.47;3593141;39;20048;-64
2023/09/14 02:28:00;;;;;;;12.43;7.53;;;;;;;13.52;92.11;102003.59;3592950;39;20090;-65
2023/09/14 02:30:26;;;;;;;9.57;5.85;;;;;;;13.50;91.09;102010.91;3593607;39;20200;-64
2023/09/14 02:32:52;;;;;;;7.47;5.47;;;;;;;13.48;91.85;102005.59;3592675;39;20048;-65
2023/09/14 02:35:18;;;;;;;10.32;5.55;;;;;;;13.49;91.80;102006.47;3591891;39;20056;-65
2023/09/14 02:37:44;;;;;;;9.40;5.28;;;;;;;13.47;91.17;102001.13;3593251;39;20092;-65
2023/09/14 02:40:10;;;;;;;7.35;5.60;;;;;;;13.30;91.00;101979.59;3594353;39;20051;-67
2023/09/14 02:42:37;;;;;;;7.43;5.53;;;;;;;13.28;91.01;101970.69;3591612;39;20051;-66
2023/09/14 02:45:05;;;;;;;8.65;5.90;;;;;;;13.24;91.05;101968.16;3591023;39;20066;-66
2023/09/14 02:47:30;;;;;;;7.80;5.95;;;;;;;13.42;91.46;101995.13;3591768;39;20653;-65
2023/09/14 02:49:57;;;;;;;9.82;5.90;;;;;;;13.28;91.84;101970.69;3592926;39;20406;-65
2023/09/14 02:52:23;;;;;;;7.35;5.60;;;;;;;13.38;91.54;102005.25;3593156;39;20120;-64
2023/09/14 02:54:48;;;;;;;7.20;4.95;;;;;;;13.18;91.18;101971.16;3598863;39;20047;-65
2023/09/14 02:57:14;;;;;;;8.60;6.22;;;;;;;13.33;91.19;101992.94;3595124;39;20055;-67
2023/09/14 02:59:39;;;;;;;9.75;5.65;;;;;;;13.31;91.58;101989.44;3594922;39;20102;-64
2023/09/14 03:02:06;;;;;;;8.90;5.90;;;;;;;13.31;91.52;102000.22;3593412;39;20054;-64
2023/09/14 03:04:32;;;;;;;6.57;4.88;;;;;;;13.31;91.39;102003.81;3592858;39;20052;-65
2023/09/14 03:06:58;;;;;;;8.48;5.60;;;;;;;13.30;90.65;102001.19;3596595;39;20078;-66
2023/09/14 03:09:23;;;;;;;6.88;5.43;;;;;;;13.28;91.22;101992.31;3597248;39;20087;-67
2023/09/14 03:11:49;;;;;;;6.78;4.82;;;;;;;13.28;91.87;102001.25;3596566;39;20059;-63
2023/09/14 03:14:14;;;;;;;9.80;5.05;;;;;;;13.27;91.86;101987.88;3595288;39;20047;-65
2023/09/14 03:16:40;;;;;;;7.53;4.97;;;;;;;13.07;91.00;101962.78;3595062;39;20071;-65
2023/09/14 03:19:06;;;;;;;9.13;4.97;;;;;;;13.24;91.05;101997.88;3596102;39;20081;-65
2023/09/14 03:21:31;;;;;;;8.18;5.00;;;;;;;13.20;90.79;101996.25;3592855;39;20111;-66
2023/09/14 03:23:57;;;;;;;7.78;4.95;;;;;;;13.19;91.22;101999.03;3594275;39;20378;-66
2023/09/14 03:26:23;;;;;;;6.47;4.85;;;;;;;13.16;91.50;101991.09;3593775;39;20086;-64
2023/09/14 03:28:50;;;;;;;6.85;4.88;;;;;;;13.12;91.21;101993.09;3596039;39;20052;-65
2023/09/14 03:31:17;;;;;;;7.30;5.25;;;;;;;13.17;92.11;102006.38;3586907;39;20052;-65
2023/09/14 03:33:46;;;;;;;7.10;4.88;;;;;;;13.18;93.03;102003.56;3595537;39;20108;-66
2023/09/14 03:36:12;;;;;;;9.52;5.55;;;;;;;13.17;93.20;102001.81;3596228;39;20121;-66
2023/09/14 03:38:38;;;;;;;8.48;5.22;;;;;;;13.18;93.51;102002.69;3585856;39;20063;-65
2023/09/14 03:41:03;;;;;;;8.73;4.93;;;;;;;13.14;93.12;101996.59;3584874;39;20066;-66
2023/09/14 03:43:29;;;;;;;6.93;5.47;;;;;;;13.10;92.62;102005.81;3595817;39;20043;-66
2023/09/14 03:45:57;;;;;;;10.40;6.72;;;;;;;13.05;92.77;102002.47;3594791;39;20421;-65
2023/09/14 03:48:23;;;;;;;7.78;5.70;;;;;;;13.07;92.43;102005.13;3597257;39;20386;-65
2023/09/14 03:50:48;;;;;;;11.13;5.13;;;;;;;13.08;92.67;102010.41;3596458;39;20054;-66
2023/09/14 03:53:14;;;;;;;9.55;5.15;;;;;;;13.08;92.57;102005.03;3594466;39;20113;-65
2023/09/14 03:55:41;;;;;;;8.75;5.75;;;;;;;13.10;91.94;102011.22;3593553;39;20223;-64
2023/09/14 03:58:07;;;;;;;11.70;4.90;;;;;;;12.96;90.86;101984.06;3595444;39;20066;-64
2023/09/14 04:00:33;;;;;;;7.40;4.88;;;;;;;13.06;90.58;102004.22;3591622;39;20375;-64
2023/09/14 04:02:59;;;;;;;8.65;5.20;;;;;;;13.07;90.94;102000.59;3592730;39;20066;-65
2023/09/14 04:05:24;;;;;;;6.72;4.97;;;;;;;13.06;90.79;102003.34;3595856;39;20488;-65
2023/09/14 04:07:51;;;;;;;5.97;4.97;;;;;;;13.04;90.87;102003.44;3592452;39;20163;-65
2023/09/14 04:10:17;;;;;;;6.28;5.03;;;;;;;13.02;90.25;101998.13;3595708;39;20067;-64
2023/09/14 04:12:43;;;;;;;6.70;4.80;;;;;;;13.04;90.82;102002.59;3597239;39;20055;-65
2023/09/14 04:15:10;;;;;;;9.15;5.18;;;;;;;13.04;90.47;101999.88;3596134;39;20048;-64
2023/09/14 04:17:36;;;;;;;10.07;5.13;;;;;;;13.03;90.75;101998.97;3592797;39;20068;-67
2023/09/14 04:20:09;;;;;;;11.88;4.78;;;;;;;13.02;89.92;102002.66;3593392;39;20063;-65
2023/09/14 04:22:37;;;;;;;11.20;4.97;;;;;;;12.95;90.07;101987.75;3594154;39;20048;-66
2023/09/14 04:25:03;;;;;;;7.22;4.95;;;;;;;12.99;90.68;102003.66;3592307;39;20055;-66
2023/09/14 04:27:29;;;;;;;5.40;4.75;;;;;;;12.96;90.73;102009.22;3594222;39;20051;-66
2023/09/14 04:29:55;;;;;;;8.82;5.03;;;;;;;12.95;90.51;102002.09;3599970;39;20361;-66
2023/09/14 04:32:20;;;;;;;9.63;5.40;;;;;;;12.93;91.03;102000.44;3595767;39;20083;-65
2023/09/14 04:34:46;;;;;;;10.75;5.53;;;;;;;12.90;92.01;102004.16;3592895;39;20062;-66
2023/09/14 04:37:11;;;;;;;7.78;4.90;;;;;;;12.87;92.01;102003.44;3591951;39;20189;-65
2023/09/14 04:39:38;;;;;;;6.70;5.60;;;;;;;12.86;92.37;102009.81;3592569;39;20262;-65
2023/09/14 04:42:04;;;;;;;8.43;5.40;;;;;;;12.85;92.14;102005.38;3594399;39;20083;-65
2023/09/14 04:44:30;;;;;;;8.95;5.30;;;;;;;12.84;92.35;102003.59;3592088;39;20064;-65
2023/09/14 04:46:56;;;;;;;5.72;5.13;;;;;;;12.82;92.26;102003.72;3596308;39;20059;-65
2023/09/14 04:49:21;;;;;;;7.47;5.30;;;;;;;12.80;91.84;101997.50;3593872;39;20051;-66
2023/09/14 04:51:47;;;;;;;11.98;5.55;;;;;;;12.78;92.15;102000.31;3592235;39;20394;-66
2023/09/14 04:54:13;;;;;;;8.32;5.55;;;;;;;12.77;92.63;102000.38;3592999;39;20379;-66
2023/09/14 04:56:38;;;;;;;8.40;5.47;;;;;;;12.73;92.14;102002.34;3591018;39;20082;-65
2023/09/14 04:59:04;;;;;;;9.15;5.32;;;;;;;12.55;92.81;101977.19;3591870;39;20067;-65
2023/09/14 05:01:30;;;;;;;6.97;5.10;;;;;;;12.67;92.44;102007.19;3593418;39;20056;-65
2023/09/14 05:03:56;;;;;;;8.65;5.97;;;;;;;12.68;93.41;102004.41;3592503;39;20398;-66
2023/09/14 05:06:21;;;;;;;6.85;5.50;;;;;;;12.69;93.05;102000.78;3596469;39;20047;-66
2023/09/14 05:08:47;;;;;;;8.48;5.45;;;;;;;12.64;92.11;101997.44;3589800;39;20064;-66
2023/09/14 05:11:13;;;;;;;8.00;5.20;;;;;;;12.69;92.74;102003.47;3594501;39;20063;-66
2023/09/14 05:13:38;;;;;;;11.73;6.05;;;;;;;12.72;92.56;102002.44;3590725;39;20071;-66
2023/09/14 05:16:04;;;;;;;8.18;5.60;;;;;;;12.72;91.84;102006.00;3593454;39;20051;-66
2023/09/14 05:18:30;;;;;;;7.68;5.47;;;;;;;12.67;92.21;101994.56;3590508;39;20055;-64
2023/09/14 05:20:55;;;;;;;7.78;5.10;;;;;;;12.70;91.37;102002.50;3593950;39;20077;-66
2023/09/14 05:23:21;;;;;;;7.07;5.00;;;;;;;12.77;91.71;102013.84;3592530;39;20063;-66
2023/09/14 05:25:47;;;;;;;10.10;5.50;;;;;;;12.63;91.36;101984.91;3594408;39;20485;-65
2023/09/14 05:28:14;;;;;;;9.13;5.00;;;;;;;12.51;91.42;101972.91;3594706;39;20164;-66
2023/09/14 05:30:42;;;;;;;10.02;5.30;;;;;;;12.84;91.87;102030.59;3584004;39;20066;-66
2023/09/14 05:33:08;;;;;;;7.72;5.28;;;;;;;12.87;92.59;102027.75;3590842;39;20064;-66
2023/09/14 05:35:34;;;;;;;8.73;5.80;;;;;;;12.88;92.30;102029.50;3593356;39;20043;-65
2023/09/14 05:38:00;;;;;;;5.97;5.25;;;;;;;12.89;92.36;102025.84;3593587;39;20051;-66
2023/09/14 05:40:25;;;;;;;7.80;5.40;;;;;;;12.89;91.57;102033.94;3593551;39;20162;-66
2023/09/14 05:42:51;;;;;;;7.18;4.88;;;;;;;12.90;91.71;102027.59;3595661;39;20059;-66
2023/09/14 05:45:17;;;;;;;6.63;5.45;;;;;;;12.94;91.29;102037.25;3593450;39;20058;-65
2023/09/14 05:47:42;;;;;;;9.23;5.30;;;;;;;12.96;90.82;102035.34;3596376;39;20060;-65
2023/09/14 05:50:10;;;;;;;8.70;5.13;;;;;;;12.78;90.59;102007.50;3597976;39;20352;-66
2023/09/14 05:52:36;;;;;;;6.97;4.53;;;;;;;13.02;91.31;102037.72;3593599;39;20063;-65
2023/09/14 05:55:05;;;;;;;5.75;4.40;;;;;;;12.97;90.33;102023.59;3592965;39;20061;-65
2023/09/14 05:57:31;;;;;;;5.97;5.30;;;;;;;13.07;91.06;102035.69;3587454;39;20060;-65
2023/09/14 05:59:58;;;;;;;6.82;5.15;;;;;;;13.10;91.41;102038.22;3592685;39;20113;-65
2023/09/14 06:02:24;;;;;;;9.50;5.78;;;;;;;13.11;91.81;102039.09;3593685;39;20056;-65
2023/09/14 06:04:50;;;;;;;6.65;5.15;;;;;;;13.19;91.65;102042.22;3593344;39;20651;-65
2023/09/14 06:07:17;;;;;;;8.45;5.70;;;;;;;13.21;91.90;102035.81;3593803;39;20043;-65
2023/09/14 06:09:42;;;;;;;9.68;6.10;;;;;;;13.24;92.20;102035.66;3593325;39;20313;-66
2023/09/14 06:12:08;;;;;;;7.00;5.38;;;;;;;13.28;92.28;102030.97;3592353;39;20060;-66
2023/09/14 06:14:34;;;;;;;9.52;6.18;;;;;;;13.36;93.04;102027.88;3591511;39;20094;-65
2023/09/14 06:17:00;;;;;;;10.43;5.97;;;;;;;13.42;92.89;102032.94;3598102;39;20299;-67
2023/09/14 06:19:26;;;;;;;10.85;6.40;;;;;;;13.49;92.79;102037.06;3592980;39;20055;-67
2023/09/14 06:21:52;;;;;;;10.40;5.82;;;;;;;13.55;93.19;102036.72;3591349;39;20052;-66
2023/09/14 06:24:18;;;;;;;12.60;6.03;;;;;;;13.62;93.16;102035.41;3593069;39;20051;-67
2023/09/14 06:26:44;;;;;;;11.10;6.05;;;;;;;13.34;93.70;101978.47;3594346;39;20059;-67
2023/09/14 06:29:13;;;;;;;13.68;6.80;;;;;;;13.72;94.09;102033.06;3593567;39;20055;-66
2023/09/14 06:31:40;;;;;;;17.75;7.55;;;;;;;13.87;94.34;102036.75;3594190;39;20079;-66
2023/09/14 06:34:06;;;;;;;13.13;6.68;;;;;;;13.93;94.71;102034.56;3592452;39;20125;-66
2023/09/14 06:36:31;;;;;;;15.60;7.00;;;;;;;14.02;94.45;102037.69;3593426;39;20052;-65
2023/09/14 06:38:57;;;;;;;15.18;7.35;;;;;;;14.09;94.16;102034.56;3592717;39;20103;-65
2023/09/14 06:41:22;;;;;;;11.52;6.80;;;;;;;14.20;94.08;102041.19;3592536;39;20048;-65
2023/09/14 06:43:48;;;;;;;13.65;7.00;;;;;;;14.27;93.84;102037.16;3594031;39;20094;-65
2023/09/14 06:46:14;;;;;;;12.63;7.13;;;;;;;14.36;93.70;102042.03;3595661;39;20059;-64
2023/09/14 06:48:41;;;;;;;12.43;6.90;;;;;;;14.45;93.34;102032.53;3592556;39;20651;-65
2023/09/14 06:51:06;;;;;;;17.77;7.13;;;;;;;14.53;93.75;102036.56;3592260;39;20082;-65
2023/09/14 06:53:36;;;;;;;13.68;7.50;;;;;;;14.21;93.17;101969.91;3591501;39;20059;-65
2023/09/14 06:56:09;;;;;;;18.27;7.95;;;;;;;14.70;92.58;102034.69;3592532;39;20047;-65
2023/09/14 06:58:35;;;;;;;72.68;57.55;;;;;;;14.82;93.65;102045.63;3594036;39;20047;-66
2023/09/14 07:01:03;;;;;;;18.92;10.85;;;;;;;14.95;92.66;102043.06;3593224;39;20055;-65
2023/09/14 07:03:31;;;;;;;14.50;7.85;;;;;;;15.10;91.92;102035.84;3593127;39;20471;-65
2023/09/14 07:05:57;;;;;;;15.60;7.68;;;;;;;15.22;91.29;102050.44;3582646;39;20386;-66
2023/09/14 07:08:23;;;;;;;13.68;7.88;;;;;;;15.41;91.37;102053.75;3597838;39;20417;-66
2023/09/14 07:10:48;;;;;;;9.25;7.10;;;;;;;15.63;91.42;102044.28;3593913;39;20096;-66
2023/09/14 07:13:14;;;;;;;10.60;7.13;;;;;;;15.76;88.25;102050.69;3593928;39;20055;-65
2023/09/14 07:15:41;;;;;;;11.15;6.93;;;;;;;15.84;89.04;102023.09;3595030;39;20071;-66
2023/09/14 07:18:10;;;;;;;11.52;7.20;;;;;;;16.09;87.46;102050.34;3592926;39;20581;-65
2023/09/14 07:20:35;;;;;;;11.48;7.22;;;;;;;16.30;87.65;102048.06;3592952;39;20053;-65
2023/09/14 07:23:01;;;;;;;12.40;7.63;;;;;;;16.58;87.28;102041.63;3593678;39;20044;-69
2023/09/14 07:25:28;;;;;;;14.25;7.45;;;;;;;16.75;84.94;102048.69;3592342;39;20064;-68
2023/09/14 07:27:53;;;;;;;11.65;7.13;;;;;;;16.96;83.82;102051.75;3593392;39;20088;-70
2023/09/14 07:30:19;;;;;;;15.52;9.07;;;;;;;17.12;81.66;102046.13;3594441;39;20059;-69
2023/09/14 07:32:44;;;;;;;13.93;8.05;;;;;;;17.40;83.71;102056.78;3594336;39;20393;-68
2023/09/14 07:35:13;;;;;;;15.15;7.57;;;;;;;17.61;81.16;102057.09;3593423;39;20063;-68
2023/09/14 07:37:39;;;;;;;21.98;16.27;;;;;;;17.78;79.80;102057.78;3595934;39;20050;-69
2023/09/14 07:40:06;;;;;;;18.83;11.55;;;;;;;17.96;79.23;102064.59;3594395;39;20071;-68
2023/09/14 07:42:32;;;;;;;11.73;7.32;;;;;;;18.11;77.03;102059.88;3594313;39;20067;-69
2023/09/14 07:44:57;;;;;;;10.18;6.65;;;;;;;18.17;76.57;102056.69;3580424;39;20099;-68
2023/09/14 07:47:28;;;;;;;8.27;7.00;;;;;;;18.33;76.30;102068.19;3590936;39;20063;-69
2023/09/14 07:49:53;;;;;;;10.90;7.18;;;;;;;18.49;75.43;102069.72;3590146;39;20379;-68
2023/09/14 07:52:19;;;;;;;10.65;6.45;;;;;;;18.57;73.68;102072.75;3593336;39;20116;-68
2023/09/14 07:54:45;;;;;;;9.80;5.78;;;;;;;18.67;73.91;102065.63;3594000;39;20103;-68
2023/09/14 07:57:10;;;;;;;11.13;6.32;;;;;;;18.84;75.75;102066.19;3596736;39;20066;-68
2023/09/14 07:59:36;;;;;;;11.98;6.47;;;;;;;19.00;73.96;102066.78;3592773;39;20079;-68
2023/09/14 08:02:01;;;;;;;9.75;6.57;;;;;;;19.15;72.81;102068.28;3594507;39;20067;-69
2023/09/14 08:04:27;;;;;;;8.15;6.03;;;;;;;19.25;70.69;102077.50;3594178;39;20097;-70
2023/09/14 08:06:53;;;;;;;12.30;6.65;;;;;;;19.33;70.21;102081.47;3592164;39;20368;-66
2023/09/14 08:09:18;;;;;;;8.93;6.30;;;;;;;19.35;72.10;102074.03;3592440;39;20060;-68
2023/09/14 08:11:44;;;;;;;10.30;6.40;;;;;;;19.42;72.04;102075.28;3592196;39;20070;-69
2023/09/14 08:14:09;;;;;;;12.05;6.95;;;;;;;19.25;70.30;102047.50;3595265;39;20067;-69
2023/09/14 08:16:35;;;;;;;10.82;7.05;;;;;;;19.47;70.79;102070.31;3597226;39;20081;-68
2023/09/14 08:19:00;;;;;;;13.82;7.10;;;;;;;19.54;70.40;102066.13;3594304;39;20066;-69
2023/09/14 08:21:26;;;;;;;10.15;6.80;;;;;;;19.63;71.03;102065.41;3593582;39;20048;-68
2023/09/14 08:23:53;;;;;;;10.95;6.60;;;;;;;19.80;70.27;102071.38;3594251;39;20293;-69
2023/09/14 08:26:20;;;;;;;11.70;7.03;;;;;;;19.95;70.40;102075.59;3596278;39;20055;-68
2023/09/14 08:28:45;;;;;;;10.73;6.82;;;;;;;20.07;69.33;102079.16;3597123;39;20131;-68
2023/09/14 08:31:11;;;;;;;10.48;6.85;;;;;;;20.17;68.17;102083.75;3591199;39;20059;-67
2023/09/14 08:33:37;;;;;;;11.77;7.85;;;;;;;20.23;66.74;102076.03;3594023;39;20558;-68
2023/09/14 08:36:02;;;;;;;10.48;7.72;;;;;;;20.25;66.84;102074.06;3591607;39;20088;-68
2023/09/14 08:38:28;;;;;;;13.82;8.80;;;;;;;20.42;66.74;102081.69;3592099;39;20056;-69
2023/09/14 08:41:01;;;;;;;14.25;8.50;;;;;;;20.60;67.03;102085.66;3592967;39;20061;-67
2023/09/14 08:43:27;;;;;;;;;;;;;;;20.75;65.62;102096.28;3594223;39;20052;-68
2023/09/14 08:45:56;;;;;;;12.50;8.25;;;;;;;20.74;65.12;102078.13;3595399;39;20258;-68
2023/09/14 08:48:28;;;;;;;11.77;8.40;;;;;;;20.86;62.91;102090.75;3582140;39;20044;-68
2023/09/14 08:50:57;;;;;;;12.20;9.02;;;;;;;20.71;63.71;102062.00;3595825;39;20055;-66
2023/09/14 08:53:24;;;;;;;11.93;8.50;;;;;;;20.86;62.28;102088.03;3599055;39;20063;-67
2023/09/14 08:55:51;;;;;;;13.60;8.15;;;;;;;20.79;62.97;102087.69;3593993;39;20055;-67
2023/09/14 08:58:19;;;;;;;11.70;9.05;;;;;;;20.71;61.83;102089.34;3584290;39;20536;-68
2023/09/14 09:00:48;;;;;;;13.35;9.15;;;;;;;20.62;63.83;102086.41;3592846;39;20055;-68
2023/09/14 09:03:13;;;;;;;15.82;9.68;;;;;;;20.71;63.53;102076.56;3593086;39;20048;-67
2023/09/14 09:05:41;;;;;;;12.32;9.15;;;;;;;20.77;63.21;102072.41;3591130;39;20103;-67
2023/09/14 09:08:09;;;;;;;15.65;8.50;;;;;;;20.92;62.07;102083.91;3590988;39;20062;-68
2023/09/14 09:10:36;;;;;;;15.35;8.95;;;;;;;20.99;62.51;102077.78;3586838;39;20054;-68
2023/09/14 09:13:04;;;;;;;14.05;8.23;;;;;;;21.24;62.25;102075.66;3590666;39;20406;-68
2023/09/14 09:15:33;;;;;;;8.23;5.75;;;;;;;21.50;57.68;102081.59;3595521;39;20056;-68
2023/09/14 09:18:11;;;;;;;9.68;5.78;;;;;;;21.66;58.17;102068.31;3591404;39;20063;-68
2023/09/14 09:20:40;;;;;;;8.45;6.82;;;;;;;21.84;57.73;102067.66;3591601;39;20096;-68
2023/09/14 09:23:08;;;;;;;12.00;5.70;;;;;;;22.05;56.81;102076.66;3594101;39;20044;-68
2023/09/14 09:25:54;;;;;;;6.32;4.57;;;;;;;22.24;54.63;102062.19;3592948;39;20382;-69
2023/09/14 09:28:29;;;;;;;10.45;6.60;;;;;;;22.24;55.01;102062.19;3592619;39;20304;-68
2023/09/14 09:30:55;;;;;;;8.18;5.95;;;;;;;22.33;53.80;102068.66;3583711;39;20064;-70
2023/09/14 09:33:37;;;;;;;8.18;5.35;;;;;;;22.33;52.54;102066.81;3593230;39;20279;-68
2023/09/14 09:36:19;;;;;;;7.15;4.65;;;;;;;22.32;53.86;102062.34;3576720;39;20066;-69
2023/09/14 09:38:47;;;;;;;9.18;5.65;;;;;;;22.17;54.70;102036.34;3593067;39;20145;-67
2023/09/14 09:41:15;;;;;;;8.13;5.60;;;;;;;22.21;54.55;102066.06;3592519;39;20064;-68
2023/09/14 09:43:41;;;;;;;10.27;5.90;;;;;;;22.11;56.34;102034.16;3594280;39;20044;-68
2023/09/14 09:46:15;;;;;;;10.88;6.43;;;;;;;22.47;54.05;102063.66;3596677;39;20448;-68
2023/09/14 09:48:41;;;;;;;10.43;5.97;;;;;;;22.62;54.88;102063.25;3588413;39;20329;-68
2023/09/14 09:51:08;;;;;;;9.43;6.03;;;;;;;22.69;53.48;102058.91;3595092;39;20353;-68
2023/09/14 09:53:35;;;;;;;5.95;4.82;;;;;;;22.62;52.88;102057.78;3591776;39;20059;-68
2023/09/14 09:56:02;;;;;;;39.35;30.15;;;;;;;22.38;51.84;102052.69;3592597;39;20064;-67
2023/09/14 09:58:36;;;;;;;179.73;129.05;;;;;;;22.29;53.34;102059.00;3593126;39;20060;-67
2023/09/14 10:01:02;;;;;;;10.63;7.32;;;;;;;22.33;55.22;102055.88;3594382;39;20246;-68
2023/09/14 10:03:30;;;;;;;13.30;7.32;;;;;;;22.38;54.98;102056.28;3597636;39;20398;-68
2023/09/14 10:05:57;;;;;;;10.68;6.70;;;;;;;22.22;53.84;102028.59;3600124;39;20050;-67
2023/09/14 10:08:22;;;;;;;8.40;5.85;;;;;;;22.34;54.91;102051.25;3594847;39;20055;-68
2023/09/14 10:10:51;;;;;;;10.63;5.82;;;;;;;22.29;54.87;102051.66;3598019;39;20055;-67
2023/09/14 10:13:23;;;;;;;10.18;5.88;;;;;;;22.34;53.27;102051.25;3590907;39;20043;-67
2023/09/14 10:16:01;;;;;;;11.75;5.57;;;;;;;22.29;53.59;102046.19;3594499;39;20062;-67
2023/09/14 10:18:32;;;;;;;7.75;5.18;;;;;;;22.17;53.07;102019.91;3598479;39;20098;-66
2023/09/14 10:20:59;;;;;;;6.72;4.32;;;;;;;22.33;49.94;102046.75;3595605;39;20075;-67
2023/09/14 10:23:29;;;;;;;7.00;3.80;;;;;;;22.28;51.34;102049.94;3597629;39;20063;-67
2023/09/14 10:25:57;;;;;;;4.20;3.40;;;;;;;22.26;52.15;102038.25;3586892;39;20063;-67
2023/09/14 10:28:26;;;;;;;5.18;3.45;;;;;;;22.17;51.12;102041.81;3595233;39;20052;-68
2023/09/14 10:30:54;;;;;;;9.90;4.55;;;;;;;22.10;51.40;102041.50;3588810;39;20095;-68
2023/09/14 10:33:22;;;;;;;5.90;3.83;;;;;;;22.31;52.28;102046.91;3597568;39;20051;-68
2023/09/14 10:35:53;;;;;;;5.28;4.10;;;;;;;22.72;49.41;102042.19;3596871;39;20092;-68
2023/09/14 10:38:25;;;;;;;6.18;3.50;;;;;;;23.26;50.61;102040.69;3588487;39;20055;-68
2023/09/14 10:40:54;;;;;;;5.05;3.05;;;;;;;23.72;50.23;102036.22;3597894;39;20049;-68
2023/09/14 10:43:20;;;;;;;5.18;3.50;;;;;;;23.92;47.88;102026.03;3597437;39;20054;-67
2023/09/14 10:45:50;;;;;;;6.03;3.55;;;;;;;23.82;46.21;102037.06;3594120;39;20048;-68
2023/09/14 10:48:28;;;;;;;3.67;3.03;;;;;;;23.63;48.26;102031.63;3596726;39;20063;-67
2023/09/14 10:51:00;;;;;;;5.82;4.20;;;;;;;23.31;47.22;102005.47;3593834;39;20051;-67
2023/09/14 10:53:28;;;;;;;6.45;3.97;;;;;;;23.22;48.37;102016.47;3595458;39;20060;-66
2023/09/14 10:55:55;;;;;;;8.20;3.85;;;;;;;23.30;49.04;102017.44;3594105;39;20375;-69
2023/09/14 10:58:21;;;;;;;4.50;3.33;;;;;;;23.63;47.53;102015.16;3597089;39;20052;-68
2023/09/14 11:00:58;;;;;;;5.25;3.20;;;;;;;24.14;47.32;102011.00;3594185;39;20071;-67
2023/09/14 11:03:24;;;;;;;4.13;2.60;;;;;;;24.50;45.36;101986.31;3598155;39;20052;-67
2023/09/14 11:05:52;;;;;;;4.90;2.40;;;;;;;24.90;43.07;102015.19;3596282;39;20125;-67
2023/09/14 11:08:19;;;;;;;2.80;2.35;;;;;;;25.15;45.02;102014.38;3595656;39;20068;-67
2023/09/14 11:10:58;;;;;;;3.00;2.40;;;;;;;25.39;42.30;102005.38;3594192;39;20048;-67
2023/09/14 11:13:28;;;;;;;3.22;2.33;;;;;;;25.74;41.39;102013.66;3595627;39;20375;-67
2023/09/14 11:16:16;;;;;;;4.88;2.10;;;;;;;25.73;41.64;102001.78;3596410;39;20056;-67
2023/09/14 11:18:45;;;;;;;3.13;2.05;;;;;;;25.96;42.24;102018.59;3596854;39;20055;-68
2023/09/14 11:21:32;;;;;;;5.03;3.05;;;;;;;26.11;41.10;102011.41;3597891;39;20054;-67
2023/09/14 11:23:59;;;;;;;4.47;2.72;;;;;;;26.27;41.24;102009.72;3596204;39;20059;-68